createdAt,value
2022-09-06T00:01:10.099Z,101594.91
2022-09-06T00:03:37.660Z,101594.75
2022-09-06T00:06:09.323Z,101599.94
2022-09-06T00:08:36.957Z,101596.59
2022-09-06T00:11:04.701Z,101597.78
2022-09-06T00:13:34.179Z,101592.47
2022-09-06T00:16:11.916Z,101599.28
2022-09-06T00:18:39.576Z,101603.28
2022-09-06T00:21:14.447Z,101604.47
2022-09-06T00:23:42.106Z,101597.97
2022-09-06T00:26:09.650Z,101599.13
2022-09-06T00:28:38.812Z,101614.97
2022-09-06T00:31:10.259Z,101601.16
2022-09-06T00:33:37.919Z,101607.28
2022-09-06T00:36:05.511Z,101604.47
2022-09-06T00:38:33.055Z,101606.47
2022-09-06T00:41:00.611Z,101606.47
2022-09-06T00:43:28.175Z,101605.63
2022-09-06T00:45:57.293Z,101610.47
2022-09-06T00:48:25.387Z,101623.78
2022-09-06T00:50:54.437Z,101626.63
2022-09-06T00:53:22.283Z,101633.94
2022-09-06T00:55:50.119Z,101645.28
2022-09-06T00:58:17.930Z,101642.44
2022-09-06T01:00:45.849Z,101650.59
2022-09-06T01:03:15.198Z,101657.59
2022-09-06T01:05:49.674Z,101666.09
2022-09-06T01:08:30.848Z,101653.94
2022-09-06T01:11:05.361Z,101658.25
2022-09-06T01:13:38.316Z,101665.44
2022-09-06T01:16:12.699Z,101650.78
2022-09-06T01:18:50.797Z,101655.63
2022-09-06T01:21:22.936Z,101657.63
2022-09-06T01:24:02.635Z,101646.66
2022-09-06T01:26:44.985Z,101657.00
2022-09-06T01:29:16.929Z,101653.69
2022-09-06T01:31:47.370Z,101650.84
2022-09-06T01:34:21.268Z,101653.34
2022-09-06T01:37:09.052Z,101645.69
2022-09-06T01:39:38.458Z,101644.84
2022-09-06T01:42:08.596Z,101632.69
2022-09-06T01:44:38.720Z,101629.03
2022-09-06T01:47:12.776Z,101625.38
2022-09-06T01:49:46.918Z,101610.38
2022-09-06T01:52:17.850Z,101605.91
2022-09-06T01:54:58.265Z,101591.75
2022-09-06T01:57:32.956Z,101585.56
2022-09-06T02:00:07.760Z,101580.22
2022-09-06T02:02:47.278Z,101595.91
2022-09-06T02:05:18.707Z,101575.59
2022-09-06T02:07:47.840Z,101586.06
2022-09-06T02:10:17.888Z,101582.75
2022-09-06T02:12:47.419Z,101573.44
2022-09-06T02:15:17.914Z,101568.97
2022-09-06T02:17:49.655Z,101566.47
2022-09-06T02:20:18.921Z,101558.34
2022-09-06T02:22:48.319Z,101558.34
2022-09-06T02:25:19.732Z,101551.84
2022-09-06T02:27:47.382Z,101546.19
2022-09-06T02:30:16.439Z,101557.50
2022-09-06T02:32:47.098Z,101561.50
2022-09-06T02:35:16.187Z,101556.19
2022-09-06T02:37:44.462Z,101559.34
2022-09-06T02:40:12.427Z,101548.38
2022-09-06T02:42:40.600Z,101538.72
2022-09-06T02:45:08.676Z,101535.88
2022-09-06T02:47:37.611Z,101536.72
2022-09-06T02:50:05.297Z,101547.53
2022-09-06T02:52:32.864Z,101543.53
2022-09-06T02:55:00.498Z,101546.38
2022-09-06T02:57:28.064Z,101536.22
2022-09-06T02:59:55.650Z,101534.72
2022-09-06T03:02:23.335Z,101525.06
2022-09-06T03:04:52.349Z,101525.88
2022-09-06T03:07:19.881Z,101525.06
2022-09-06T03:09:47.397Z,101529.88
2022-09-06T03:12:14.919Z,101536.38
2022-09-06T03:14:42.454Z,101537.19
2022-09-06T03:17:10.012Z,101540.03
2022-09-06T03:19:37.534Z,101549.00
2022-09-06T03:22:06.485Z,101548.19
2022-09-06T03:24:34.031Z,101555.84
2022-09-06T03:27:01.584Z,101550.19
2022-09-06T03:29:29.127Z,101563.66
2022-09-06T03:31:56.713Z,101558.47
2022-09-06T03:34:24.357Z,101557.66
2022-09-06T03:36:51.889Z,101561.66
2022-09-06T03:39:21.254Z,101556.81
2022-09-06T03:41:48.795Z,101562.50
2022-09-06T03:44:16.309Z,101565.66
2022-09-06T03:46:43.808Z,101574.47
2022-09-06T03:49:11.398Z,101581.81
2022-09-06T03:51:38.920Z,101580.97
2022-09-06T03:54:06.648Z,101578.97
2022-09-06T03:56:35.689Z,101573.31
2022-09-06T03:59:03.264Z,101581.31
2022-09-06T04:01:30.933Z,101579.66
2022-09-06T04:03:58.635Z,101568.34
2022-09-06T04:06:26.166Z,101573.16
2022-09-06T04:08:53.753Z,101573.50
2022-09-06T04:11:21.365Z,101572.66
2022-09-06T04:13:50.293Z,101571.84
2022-09-06T04:16:18.716Z,101575.00
2022-09-06T04:18:46.318Z,101571.69
2022-09-06T04:21:13.858Z,101578.84
2022-09-06T04:23:41.468Z,101576.84
2022-09-06T04:26:09.026Z,101575.19
2022-09-06T04:28:36.582Z,101577.53
2022-09-06T04:31:05.710Z,101567.38
2022-09-06T04:33:34.206Z,101573.88
2022-09-06T04:36:02.843Z,101578.34
2022-09-06T04:38:31.893Z,101569.88
2022-09-06T04:40:59.374Z,101568.69
2022-09-06T04:43:26.888Z,101563.72
2022-09-06T04:45:54.536Z,101571.53
2022-09-06T04:48:23.564Z,101571.19
2022-09-06T04:50:51.065Z,101563.53
2022-09-06T04:53:18.659Z,101570.84
2022-09-06T04:55:46.259Z,101571.19
2022-09-06T04:58:13.791Z,101581.19
2022-09-06T05:00:44.507Z,101582.69
2022-09-06T05:03:12.128Z,101577.75
2022-09-06T05:05:41.024Z,101575.25
2022-09-06T05:08:08.590Z,101578.75
2022-09-06T05:10:36.147Z,101573.09
2022-09-06T05:13:03.657Z,101567.28
2022-09-06T05:15:31.168Z,101567.13
2022-09-06T05:18:03.161Z,101566.63
2022-09-06T05:20:30.675Z,101569.47
2022-09-06T05:22:59.585Z,101566.13
2022-09-06T05:25:27.143Z,101560.16
2022-09-06T05:27:54.705Z,101561.31
2022-09-06T05:30:22.297Z,101554.38
2022-09-06T05:32:49.811Z,101559.53
2022-09-06T05:35:17.335Z,101559.31
2022-09-06T05:37:44.913Z,101559.28
2022-09-06T05:40:15.544Z,101545.56
2022-09-06T05:42:43.107Z,101553.19
2022-09-06T05:45:11.053Z,101536.53
2022-09-06T05:47:38.556Z,101537.47
2022-09-06T05:50:06.937Z,101539.63
2022-09-06T05:52:35.082Z,101530.44
2022-09-06T05:55:02.767Z,101533.13
2022-09-06T05:57:31.646Z,101525.13
2022-09-06T05:59:59.336Z,101528.91
2022-09-06T06:02:26.913Z,101520.53
2022-09-06T06:04:55.524Z,101521.84
2022-09-06T06:07:23.081Z,101521.03
2022-09-06T06:09:50.593Z,101519.38
2022-09-06T06:12:18.141Z,101519.72
2022-09-06T06:14:47.012Z,101528.22
2022-09-06T06:17:14.588Z,101520.09
2022-09-06T06:19:42.105Z,101528.59
2022-09-06T06:22:09.607Z,101531.03
2022-09-06T06:24:37.205Z,101529.53
2022-09-06T06:27:04.970Z,101531.69
2022-09-06T06:29:32.578Z,101530.16
2022-09-06T06:32:01.500Z,101525.47
2022-09-06T06:34:29.082Z,101518.78
2022-09-06T06:36:56.601Z,101514.06
2022-09-06T06:39:24.188Z,101524.00
2022-09-06T06:41:51.802Z,101520.97
2022-09-06T06:44:32.171Z,101527.38
2022-09-06T06:47:02.562Z,101537.13
2022-09-06T06:49:30.145Z,101542.00
2022-09-06T06:51:57.698Z,101539.44
2022-09-06T06:54:25.240Z,101542.00
2022-09-06T06:56:52.799Z,101546.88
2022-09-06T06:59:20.563Z,101554.81
2022-09-06T07:01:49.895Z,101562.75
2022-09-06T07:04:19.140Z,101564.53
2022-09-06T07:12:22.531Z,101539.50
2022-09-06T07:14:50.023Z,101523.31
2022-09-06T07:22:33.850Z,101514.81
2022-09-06T07:25:01.673Z,101530.25
2022-09-06T07:30:16.748Z,101532.69
2022-09-06T07:32:44.268Z,101532.53
2022-09-06T07:35:13.824Z,101538.25
2022-09-06T07:37:41.416Z,101544.53
2022-09-06T07:40:09.748Z,101545.38
2022-09-06T07:42:37.390Z,101546.91
2022-09-06T07:45:05.226Z,101540.88
2022-09-06T07:53:13.013Z,101540.88
2022-09-06T07:55:43.314Z,101538.94
2022-09-06T07:58:11.005Z,101542.28
2022-09-06T08:00:41.121Z,101530.44
2022-09-06T08:03:08.933Z,101524.28
2022-09-06T08:11:13.654Z,101519.81
2022-09-06T08:13:42.174Z,101518.22
2022-09-06T08:16:11.330Z,101521.16
2022-09-06T08:18:39.241Z,101522.81
2022-09-06T08:21:12.168Z,101517.06
2022-09-06T08:23:43.081Z,101521.94
2022-09-06T08:26:10.725Z,101514.47
2022-09-06T08:28:38.338Z,101520.09
2022-09-06T08:31:06.343Z,101527.25
2022-09-06T08:33:33.980Z,101524.56
2022-09-06T08:36:01.624Z,101515.22
2022-09-06T08:38:30.768Z,101521.69
2022-09-06T08:41:07.898Z,101518.28
2022-09-06T08:43:35.431Z,101516.78
2022-09-06T08:46:04.230Z,101517.06
2022-09-06T08:48:34.469Z,101510.34
2022-09-06T08:51:09.952Z,101499.25
2022-09-06T08:53:41.489Z,101505.38
2022-09-06T08:56:14.220Z,101499.66
2022-09-06T08:58:59.049Z,101495.50
2022-09-06T09:01:33.514Z,101486.16
2022-09-06T09:04:03.827Z,101492.25
2022-09-06T09:06:33.007Z,101485.28
2022-09-06T09:09:05.248Z,101482.53
2022-09-06T09:11:33.667Z,101480.56
2022-09-06T09:14:04.813Z,101480.72
2022-09-06T09:16:32.541Z,101485.50
2022-09-06T09:19:01.217Z,101492.88
2022-09-06T09:21:30.974Z,101482.78
2022-09-06T09:23:59.825Z,101480.19
2022-09-06T09:26:31.987Z,101481.31
2022-09-06T09:29:09.915Z,101471.75
2022-09-06T09:31:39.323Z,101471.88
2022-09-06T09:34:11.429Z,101466.13
2022-09-06T09:36:39.372Z,101471.06
2022-09-06T09:39:10.276Z,101473.06
2022-09-06T09:41:41.212Z,101477.50
2022-09-06T09:44:10.990Z,101476.72
2022-09-06T09:46:40.063Z,101479.22
2022-09-06T09:49:09.189Z,101479.28
2022-09-06T09:51:37.565Z,101469.00
2022-09-06T09:54:06.703Z,101475.19
2022-09-06T09:56:41.080Z,101473.13
2022-09-06T09:59:16.541Z,101476.00
2022-09-06T10:01:44.099Z,101468.63
2022-09-06T10:07:14.327Z,101459.13
2022-09-06T10:09:42.856Z,101466.88
2022-09-06T10:12:14.562Z,101475.91
2022-09-06T10:14:43.039Z,101469.34
2022-09-06T10:17:18.600Z,101458.72
2022-09-06T10:19:47.297Z,101462.00
2022-09-06T10:22:27.263Z,101466.13
2022-09-06T10:25:15.800Z,101468.19
2022-09-06T10:28:10.579Z,101453.78
2022-09-06T10:30:44.156Z,101456.94
2022-09-06T10:33:19.673Z,101456.41
2022-09-06T10:35:47.283Z,101461.78
2022-09-06T10:38:25.803Z,101468.41
2022-09-06T10:40:57.681Z,101495.13
2022-09-06T10:43:28.128Z,101503.03
2022-09-06T10:45:59.074Z,101499.81
2022-09-06T10:48:29.690Z,101504.72
2022-09-06T10:50:59.738Z,101500.22
2022-09-06T10:53:33.504Z,101501.38
2022-09-06T10:56:05.734Z,101502.09
2022-09-06T11:01:30.314Z,101509.94
2022-09-06T11:04:04.435Z,101505.13
2022-09-06T11:06:38.001Z,101507.19
2022-09-06T11:09:10.754Z,101512.97
2022-09-06T11:11:42.698Z,101508.81
2022-09-06T11:14:13.339Z,101518.16
2022-09-06T11:16:44.599Z,101516.09
2022-09-06T11:19:17.559Z,101521.00
2022-09-06T11:21:54.227Z,101525.88
2022-09-06T11:24:30.513Z,101533.25
2022-09-06T11:27:01.831Z,101540.00
2022-09-06T11:29:31.932Z,101544.63
2022-09-06T11:32:16.663Z,101553.81
2022-09-06T11:34:52.820Z,101550.22
2022-09-06T11:37:25.579Z,101555.13
2022-09-06T11:43:18.812Z,101539.59
2022-09-06T11:45:49.608Z,101536.81
2022-09-06T11:48:37.602Z,101540.69
2022-09-06T11:51:07.574Z,101544.66
2022-09-06T11:53:36.315Z,101539.16
2022-09-06T11:56:12.443Z,101529.78
2022-09-06T11:58:48.591Z,101516.91
2022-09-06T12:01:37.826Z,101517.97
2022-09-06T12:04:10.442Z,101510.47
2022-09-06T12:06:39.792Z,101508.94
2022-09-06T12:09:26.255Z,101513.63
2022-09-06T12:11:55.884Z,101521.94
2022-09-06T12:14:31.244Z,101509.63
2022-09-06T12:17:25.879Z,101511.25
2022-09-06T12:19:56.190Z,101512.88
2022-09-06T12:22:42.260Z,101520.25
2022-09-06T12:25:17.177Z,101523.47
2022-09-06T12:27:52.137Z,101524.59
2022-09-06T12:30:31.699Z,101528.16
2022-09-06T12:32:59.604Z,101529.81
2022-09-06T12:38:23.254Z,101513.34
2022-09-06T12:40:56.362Z,101519.16
2022-09-06T12:43:23.904Z,101506.91
2022-09-06T12:45:52.538Z,101512.25
2022-09-06T12:48:26.992Z,101523.22
2022-09-06T12:51:03.100Z,101519.69
2022-09-06T12:53:31.690Z,101522.06
2022-09-06T12:56:09.182Z,101512.50
2022-09-06T12:58:38.673Z,101530.88
2022-09-06T13:01:12.439Z,101530.00
2022-09-06T13:03:41.850Z,101524.31
2022-09-06T13:06:13.722Z,101522.34
2022-09-06T13:08:45.492Z,101508.03
2022-09-06T13:11:14.599Z,101488.84
2022-09-06T13:13:47.522Z,101490.94
2022-09-06T13:16:19.961Z,101490.63
2022-09-06T13:18:47.702Z,101484.44
2022-09-06T13:21:25.446Z,101491.78
2022-09-06T13:23:53.033Z,101476.91
2022-09-06T13:26:33.068Z,101483.84
2022-09-06T13:29:09.738Z,101472.72
2022-09-06T13:31:37.419Z,101490.50
2022-09-06T13:34:05.037Z,101496.56
2022-09-06T13:36:34.055Z,101492.03
2022-09-06T13:39:04.282Z,101481.41
2022-09-06T13:41:37.504Z,101475.28
2022-09-06T13:44:06.046Z,101464.69
2022-09-06T13:46:35.103Z,101447.09
2022-09-06T13:49:02.988Z,101451.66
2022-09-06T13:51:30.610Z,101458.31
2022-09-06T13:54:07.602Z,101451.28
2022-09-06T13:56:35.180Z,101461.41
2022-09-06T13:59:02.767Z,101454.06
2022-09-06T14:01:30.505Z,101455.13
2022-09-06T14:03:58.215Z,101457.28
2022-09-06T14:06:25.842Z,101462.06
2022-09-06T14:09:06.830Z,101465.25
2022-09-06T14:11:36.899Z,101458.53
2022-09-06T14:14:04.595Z,101454.19
2022-09-06T14:16:32.289Z,101452.41
2022-09-06T14:18:59.820Z,101437.50
2022-09-06T14:21:27.645Z,101445.06
2022-09-06T14:23:55.235Z,101452.22
2022-09-06T14:26:23.564Z,101454.00
2022-09-06T14:28:52.577Z,101465.19
2022-09-06T14:31:21.080Z,101465.41
2022-09-06T14:33:48.700Z,101468.38
2022-09-06T14:36:17.509Z,101468.16
2022-09-06T14:38:45.853Z,101474.72
2022-09-06T14:41:14.666Z,101474.16
2022-09-06T14:43:43.346Z,101469.28
2022-09-06T14:46:13.745Z,101470.19
2022-09-06T14:48:42.505Z,101472.44
2022-09-06T14:51:11.216Z,101466.19
2022-09-06T14:53:40.926Z,101455.88
2022-09-06T14:56:09.277Z,101457.34
2022-09-06T14:58:38.035Z,101455.78
2022-09-06T15:01:09.774Z,101452.94
2022-09-06T15:03:38.817Z,101455.88
2022-09-06T15:06:06.558Z,101456.63
2022-09-06T15:08:34.109Z,101445.97
2022-09-06T15:11:02.075Z,101439.28
2022-09-06T15:13:29.713Z,101446.50
2022-09-06T15:15:57.836Z,101450.47
2022-09-06T15:18:25.427Z,101438.22
2022-09-06T15:20:54.598Z,101444.47
2022-09-06T15:23:25.059Z,101439.66
2022-09-06T15:25:54.114Z,101447.78
2022-09-06T15:28:21.839Z,101452.19
2022-09-06T15:30:49.892Z,101449.78
2022-09-06T15:33:17.799Z,101446.50
2022-09-06T15:35:45.306Z,101449.56
2022-09-06T15:38:14.236Z,101450.22
2022-09-06T15:40:41.882Z,101453.38
2022-09-06T15:43:09.436Z,101448.75
2022-09-06T15:45:46.169Z,101456.41
2022-09-06T15:48:15.096Z,101447.75
2022-09-06T15:50:51.403Z,101433.69
2022-09-06T15:53:21.004Z,101440.00
2022-09-06T15:55:58.008Z,101443.78
2022-09-06T15:58:26.611Z,101438.06
2022-09-06T16:01:00.996Z,101440.63
2022-09-06T16:03:28.813Z,101444.38
2022-09-06T16:08:50.905Z,101456.63
2022-09-06T16:11:19.326Z,101454.28
2022-09-06T16:13:47.042Z,101460.03
2022-09-06T16:16:16.002Z,101454.03
2022-09-06T16:18:44.375Z,101444.75
2022-09-06T16:21:12.806Z,101440.59
2022-09-06T16:23:41.217Z,101435.59
2022-09-06T16:26:10.282Z,101439.25
2022-09-06T16:28:38.556Z,101442.88
2022-09-06T16:31:07.531Z,101426.38
2022-09-06T16:33:36.143Z,101418.81
2022-09-06T16:36:05.184Z,101421.13
2022-09-06T16:38:33.388Z,101416.09
2022-09-06T16:41:02.083Z,101410.28
2022-09-06T16:43:34.328Z,101410.44
2022-09-06T16:46:03.045Z,101405.88
2022-09-06T16:48:31.052Z,101404.28
2022-09-06T16:50:58.584Z,101421.38
2022-09-06T16:53:26.152Z,101423.31
2022-09-06T16:55:53.835Z,101418.81
2022-09-06T16:58:21.743Z,101426.63
2022-09-06T17:00:51.802Z,101422.22
2022-09-06T17:03:19.374Z,101422.50
2022-09-06T17:05:50.533Z,101420.44
2022-09-06T17:08:18.087Z,101422.50
2022-09-06T17:10:45.711Z,101425.34
2022-09-06T17:13:13.609Z,101425.34
2022-09-06T17:15:55.103Z,101424.97
2022-09-06T17:18:25.168Z,101421.25
2022-09-06T17:20:56.757Z,101415.84
2022-09-06T17:23:24.519Z,101419.44
2022-09-06T17:25:52.134Z,101412.06
2022-09-06T17:28:19.765Z,101405.56
2022-09-06T17:30:47.758Z,101401.44
2022-09-06T17:33:17.596Z,101401.34
2022-09-06T17:35:46.953Z,101400.88
2022-09-06T17:38:15.717Z,101392.28
2022-09-06T17:40:43.313Z,101390.53
2022-09-06T17:43:10.869Z,101387.16
2022-09-06T17:45:39.102Z,101394.31
2022-09-06T17:48:06.755Z,101396.66
2022-09-06T17:50:34.544Z,101401.81
2022-09-06T17:53:03.550Z,101404.91
2022-09-06T17:55:31.280Z,101406.84
2022-09-06T17:57:59.463Z,101417.31
2022-09-06T18:00:27.048Z,101418.31
2022-09-06T18:02:55.202Z,101419.41
2022-09-06T18:05:22.973Z,101410.78
2022-09-06T18:07:50.652Z,101412.72
2022-09-06T18:10:19.662Z,101419.16
2022-09-06T18:12:47.220Z,101422.72
2022-09-06T18:15:14.795Z,101423.81
2022-09-06T18:17:42.345Z,101426.09
2022-09-06T18:35:30.380Z,101429.38
2022-09-06T18:37:57.894Z,101428.81
2022-09-06T18:40:25.473Z,101418.53
2022-09-06T18:42:53.070Z,101413.56
2022-09-06T18:45:20.621Z,101419.97
2022-09-06T18:47:49.235Z,101418.66
2022-09-06T18:50:17.083Z,101412.88
2022-09-06T18:52:45.995Z,101420.47
2022-09-06T18:55:13.577Z,101421.56
2022-09-06T18:57:41.163Z,101421.47
2022-09-06T19:00:09.624Z,101416.50
2022-09-06T19:02:37.221Z,101426.22
2022-09-06T19:05:05.181Z,101424.91
2022-09-06T19:07:32.828Z,101426.94
2022-09-06T19:10:01.711Z,101427.19
2022-09-06T19:12:29.244Z,101429.09
2022-09-06T19:14:56.797Z,101428.66
2022-09-06T19:17:24.413Z,101431.00
2022-09-06T19:19:51.939Z,101426.53
2022-09-06T19:22:20.065Z,101423.22
2022-09-06T19:24:47.590Z,101412.91
2022-09-06T19:27:16.681Z,101417.66
2022-09-06T19:32:11.900Z,101403.16
2022-09-06T19:34:39.777Z,101403.88
2022-09-06T19:37:07.337Z,101409.78
2022-09-06T19:39:37.131Z,101401.63
2022-09-06T19:42:05.854Z,101400.66
2022-09-06T19:44:34.875Z,101396.16
2022-09-06T19:47:02.511Z,101395.72
2022-09-06T19:49:30.727Z,101395.25
2022-09-06T19:51:58.289Z,101384.25
2022-09-06T19:54:25.833Z,101371.25
2022-09-06T19:56:53.484Z,101373.59
2022-09-06T19:59:21.017Z,101369.47
2022-09-06T20:01:50.105Z,101361.31
2022-09-06T20:04:17.855Z,101362.03
2022-09-06T20:06:45.460Z,101374.09
2022-09-06T20:09:13.351Z,101362.66
2022-09-06T20:11:41.677Z,101363.72
2022-09-06T20:14:09.674Z,101349.41
2022-09-06T20:16:41.428Z,101350.94
2022-09-06T20:19:11.910Z,101347.16
2022-09-06T20:21:39.592Z,101347.91
2022-09-06T20:24:07.458Z,101335.25
2022-09-06T20:26:35.310Z,101334.31
2022-09-06T20:29:04.548Z,101330.19
2022-09-06T20:31:32.762Z,101321.19
2022-09-06T20:34:01.285Z,101313.75
2022-09-06T20:36:30.538Z,101319.78
2022-09-06T20:38:58.176Z,101310.78
2022-09-06T20:41:26.665Z,101316.84
2022-09-06T20:43:55.861Z,101311.53
2022-09-06T20:46:24.559Z,101314.38
2022-09-06T20:48:52.751Z,101303.03
2022-09-06T20:51:21.468Z,101296.53
2022-09-06T20:53:52.765Z,101277.03
2022-09-06T20:56:21.256Z,101279.03
2022-09-06T20:58:49.523Z,101259.06
2022-09-06T21:01:19.475Z,101246.09
2022-09-06T21:03:47.118Z,101248.44
2022-09-06T21:06:14.659Z,101247.97
2022-09-06T21:08:43.249Z,101248.31
2022-09-06T21:11:12.319Z,101256.00
2022-09-06T21:13:40.251Z,101261.69
2022-09-06T21:16:08.068Z,101260.84
2022-09-06T21:18:36.189Z,101257.19
2022-09-06T21:21:04.659Z,101260.03
2022-09-06T21:23:33.859Z,101264.84
2022-09-06T21:26:02.381Z,101257.19
2022-09-06T21:28:32.381Z,101241.81
2022-09-06T21:31:03.676Z,101243.47
2022-09-06T21:33:32.307Z,101254.34
2022-09-06T21:36:03.083Z,101260.38
2022-09-06T21:38:31.050Z,101255.53
2022-09-06T21:40:58.788Z,101253.03
2022-09-06T21:43:26.401Z,101263.13
2022-09-06T21:45:55.338Z,101263.13
2022-09-06T21:48:22.943Z,101269.47
2022-09-06T21:50:50.949Z,101281.97
2022-09-06T21:53:19.142Z,101296.50
2022-09-06T22:08:15.484Z,101451.09
2022-09-06T22:11:32.437Z,101485.25
2022-09-06T22:21:48.005Z,101526.63
2022-09-06T22:24:17.428Z,101521.66
2022-09-06T22:30:38.437Z,101542.03
2022-09-06T22:33:05.954Z,101542.59
